Time;durP1;ratioP1;P1;durP2;ratioP2;P2;SDS_P1;SDS_P2;PMS_P1;PMS_P2;Temp;Humidity;BMP_temperature;BMP_pressure;BME280_temperature;BME280_humidity;BME280_pressure;Samples;Min_cycle;Max_cycle;Signal;HPM_P1;HPM_P2
2021/05/10 00:01:21;;;;;;;4.10;3.70;;;13.90;54.40;;;;;;5026424;28;20457;-84
2021/05/10 00:04:01;;;;;;;3.60;3.40;;;13.90;54.50;;;;;;5024016;28;20462;-84
2021/05/10 00:09:23;;;;;;;4.13;3.20;;;13.80;54.80;;;;;;5029525;28;20442;-86
2021/05/10 00:15:13;;;;;;;3.43;3.13;;;13.60;54.80;;;;;;5025785;28;20551;-85
2021/05/10 00:17:49;;;;;;;3.67;3.30;;;13.70;54.70;;;;;;5029843;28;20462;-86
2021/05/10 00:20:34;;;;;;;4.40;3.60;;;13.60;55.00;;;;;;5027381;28;20487;-85
2021/05/10 00:23:09;;;;;;;3.90;3.60;;;13.60;55.20;;;;;;5029883;28;20445;-87
2021/05/10 00:25:52;;;;;;;4.00;3.70;;;13.50;55.30;;;;;;5024837;28;20461;-85
2021/05/10 00:28:27;;;;;;;3.67;3.37;;;13.50;55.60;;;;;;5034747;28;20453;-86
2021/05/10 00:31:10;;;;;;;3.80;3.50;;;13.40;55.80;;;;;;5023497;28;20441;-86
2021/05/10 00:33:50;;;;;;;6.03;3.67;;;13.40;56.20;;;;;;5020206;28;20450;-85
2021/05/10 00:36:24;;;;;;;7.07;3.80;;;13.30;56.50;;;;;;5018633;28;20976;-83
2021/05/10 00:39:08;;;;;;;4.40;3.83;;;13.30;57.00;;;;;;5010183;28;20454;-83
2021/05/10 00:41:44;;;;;;;4.63;3.97;;;13.10;57.70;;;;;;5028371;28;20446;-84
2021/05/10 00:44:25;;;;;;;3.77;3.47;;;13.00;58.40;;;;;;5040918;28;20466;-82
2021/05/10 00:47:01;;;;;;;4.57;4.17;;;13.00;59.20;;;;;;4999899;28;20464;-83
2021/05/10 00:49:45;;;;;;;4.50;4.10;;;13.10;59.80;;;;;;5016015;28;20455;-84
2021/05/10 00:52:21;;;;;;;4.40;4.00;;;13.00;60.10;;;;;;5015773;28;20476;-83
2021/05/10 00:54:59;;;;;;;4.20;3.80;;;12.90;60.90;;;;;;5024071;28;20465;-84
2021/05/10 00:57:39;;;;;;;5.37;3.77;;;12.80;61.70;;;;;;5004772;28;22552;-85
2021/05/10 01:00:16;;;;;;;4.43;3.50;;;12.70;62.60;;;;;;5018173;28;20452;-84
2021/05/10 01:03:08;;;;;;;3.73;3.43;;;12.60;63.50;;;;;;5021900;28;20507;-85
2021/05/10 01:05:59;;;;;;;4.43;3.70;;;12.60;64.10;;;;;;5019928;28;20461;-86
2021/05/10 01:08:35;;;;;;;4.87;3.70;;;12.60;64.50;;;;;;5003130;28;20459;-84
2021/05/10 01:11:10;;;;;;;4.70;3.57;;;12.70;65.40;;;;;;5003508;28;20464;-84
2021/05/10 01:14:05;;;;;;;4.23;3.80;;;12.60;65.50;;;;;;5013308;28;20468;-84
2021/05/10 01:16:53;;;;;;;3.83;3.53;;;12.70;66.00;;;;;;5010986;28;20495;-84
2021/05/10 01:19:45;;;;;;;4.80;4.03;;;12.70;66.10;;;;;;4992829;28;20457;-86
2021/05/10 01:22:46;;;;;;;4.97;3.53;;;12.80;66.30;;;;;;5021020;28;20459;-84
2021/05/10 01:25:23;;;;;;;6.00;3.10;;;12.70;66.50;;;;;;5017634;28;20537;-83
2021/05/10 01:30:49;;;;;;;5.60;3.80;;;12.70;66.70;;;;;;5022030;28;20441;-85
2021/05/10 01:33:25;;;;;;;4.90;3.43;;;12.70;66.70;;;;;;5022189;28;20476;-85
2021/05/10 01:36:05;;;;;;;3.70;3.40;;;12.70;67.30;;;;;;5023333;28;20452;-84
2021/05/10 01:38:42;;;;;;;3.63;3.23;;;12.70;67.00;;;;;;5002395;28;20456;-87
2021/05/10 01:41:17;;;;;;;3.60;3.30;;;12.70;67.10;;;;;;5023370;28;20453;-84
2021/05/10 01:43:53;;;;;;;4.00;3.60;;;12.80;66.70;;;;;;5026083;28;20467;-86
2021/05/10 01:46:28;;;;;;;3.60;3.30;;;12.90;66.20;;;;;;4998979;28;20448;-84
2021/05/10 01:49:02;;;;;;;5.00;3.17;;;12.80;66.40;;;;;;5013226;28;20449;-85
2021/05/10 01:51:43;;;;;;;3.43;3.13;;;12.90;66.30;;;;;;5025712;28;20465;-84
2021/05/10 01:54:22;;;;;;;3.83;3.40;;;13.00;65.80;;;;;;5001858;28;21253;-85
2021/05/10 01:56:59;;;;;;;5.83;3.00;;;13.00;65.60;;;;;;5017308;28;20563;-84
2021/05/10 01:59:34;;;;;;;3.40;3.00;;;13.10;65.60;;;;;;5020673;28;20451;-85
2021/05/10 02:02:18;;;;;;;3.30;3.00;;;13.10;65.10;;;;;;5005493;28;20460;-83
2021/05/10 02:05:09;;;;;;;3.27;2.97;;;13.30;65.10;;;;;;5023772;28;20446;-85
2021/05/10 02:07:56;;;;;;;6.00;2.80;;;13.20;64.70;;;;;;5018634;28;20464;-84
2021/05/10 02:10:34;;;;;;;3.30;3.00;;;13.40;63.80;;;;;;5015774;28;20467;-83
2021/05/10 02:13:12;;;;;;;3.17;2.87;;;13.30;63.50;;;;;;4999531;28;20832;-86
2021/05/10 02:15:49;;;;;;;3.00;2.70;;;13.40;63.30;;;;;;5019684;28;20448;-83
2021/05/10 02:18:34;;;;;;;3.30;2.60;;;13.40;63.20;;;;;;5023958;28;20448;-84
2021/05/10 02:21:12;;;;;;;3.03;2.80;;;13.30;63.20;;;;;;5026023;28;20467;-84
2021/05/10 02:23:56;;;;;;;3.60;3.30;;;13.30;63.30;;;;;;5027837;28;20448;-84
2021/05/10 02:26:33;;;;;;;3.70;3.23;;;13.30;63.10;;;;;;5033822;28;20485;-83
2021/05/10 02:29:21;;;;;;;5.63;2.90;;;13.30;63.40;;;;;;5015884;28;20985;-86
2021/05/10 02:31:57;;;;;;;4.40;2.87;;;13.20;63.30;;;;;;5008268;28;20535;-84
2021/05/10 02:34:32;;;;;;;6.80;3.20;;;13.10;63.40;;;;;;5010120;28;20453;-83
2021/05/10 02:37:07;;;;;;;4.77;3.20;;;13.10;63.50;;;;;;5020457;28;20451;-86
2021/05/10 02:39:55;;;;;;;3.60;2.80;;;13.10;63.40;;;;;;4995273;28;20455;-84
2021/05/10 02:42:31;;;;;;;3.10;2.90;;;13.20;63.20;;;;;;5018083;28;20485;-83
2021/05/10 02:45:11;;;;;;;3.33;3.03;;;13.10;63.20;;;;;;5016021;28;20445;-84
2021/05/10 02:47:48;;;;;;;5.00;2.53;;;13.10;62.90;;;;;;5021830;28;20469;-83
2021/05/10 02:50:34;;;;;;;2.63;2.43;;;13.20;62.90;;;;;;5015460;28;20467;-84
2021/05/10 02:53:08;;;;;;;2.40;2.20;;;13.20;62.60;;;;;;5022428;28;20483;-84
2021/05/10 02:55:42;;;;;;;6.13;2.70;;;13.20;62.40;;;;;;5021753;28;21025;-83
2021/05/10 02:58:18;;;;;;;3.17;2.97;;;13.20;62.60;;;;;;5016810;28;20466;-86
2021/05/10 03:01:01;;;;;;;3.63;2.87;;;13.20;62.60;;;;;;5024858;28;20456;-84
2021/05/10 03:03:34;;;;;;;3.20;2.73;;;13.10;62.50;;;;;;5019558;28;20445;-83
2021/05/10 03:06:09;;;;;;;2.60;2.40;;;13.10;62.70;;;;;;5021700;28;20445;-85
2021/05/10 03:08:47;;;;;;;2.90;2.70;;;13.10;62.80;;;;;;5021774;28;20486;-84
2021/05/10 03:11:27;;;;;;;3.07;2.87;;;13.10;62.70;;;;;;5030579;28;20454;-83
2021/05/10 03:14:03;;;;;;;4.10;2.63;;;13.10;62.70;;;;;;5026428;28;20460;-84
2021/05/10 03:16:39;;;;;;;3.20;2.70;;;13.10;62.50;;;;;;5021740;28;20489;-83
2021/05/10 03:19:14;;;;;;;3.53;3.20;;;13.10;62.70;;;;;;5021877;28;20483;-83
2021/05/10 03:21:49;;;;;;;4.37;3.00;;;13.10;62.90;;;;;;5020588;28;20461;-83
2021/05/10 03:24:24;;;;;;;2.60;2.40;;;13.00;62.90;;;;;;5026297;28;20436;-85
2021/05/10 03:26:59;;;;;;;3.83;2.50;;;13.00;63.00;;;;;;5034965;28;20462;-85
2021/05/10 03:29:38;;;;;;;3.20;2.67;;;13.10;62.80;;;;;;5027783;28;20472;-87
2021/05/10 03:32:13;;;;;;;3.43;2.77;;;13.10;62.60;;;;;;5013643;28;20482;-84
2021/05/10 03:34:48;;;;;;;4.60;2.70;;;13.20;62.20;;;;;;5015423;28;20467;-85
2021/05/10 03:37:23;;;;;;;3.17;2.80;;;13.20;62.10;;;;;;5006109;28;20455;-85
2021/05/10 03:40:00;;;;;;;3.10;2.80;;;13.30;61.90;;;;;;5019035;28;20449;-84
2021/05/10 03:42:55;;;;;;;2.83;2.63;;;13.30;61.40;;;;;;5029488;28;20441;-85
2021/05/10 03:45:38;;;;;;;3.67;3.37;;;13.40;61.30;;;;;;5026585;28;20521;-85
2021/05/10 03:48:22;;;;;;;3.13;2.83;;;13.40;61.30;;;;;;5028649;28;20512;-87
2021/05/10 03:50:59;;;;;;;5.20;2.50;;;13.40;61.00;;;;;;5009403;28;20442;-85
2021/05/10 03:53:39;;;;;;;2.70;2.50;;;13.60;60.80;;;;;;5033047;28;20447;-85
2021/05/10 03:56:21;;;;;;;3.83;3.50;;;13.60;60.50;;;;;;5036308;28;20461;-86
2021/05/10 03:58:55;;;;;;;7.10;3.20;;;13.70;60.60;;;;;;5035776;28;20536;-84
2021/05/10 04:01:45;;;;;;;4.40;2.93;;;13.90;60.20;;;;;;5034855;28;20477;-84
2021/05/10 04:04:24;;;;;;;2.43;2.33;;;14.40;59.30;;;;;;5027999;28;20449;-85
2021/05/10 04:10:06;;;;;;;3.30;2.90;;;15.30;58.30;;;;;;5009846;28;20486;-85
2021/05/10 04:15:31;;;;;;;3.33;2.87;;;16.30;56.70;;;;;;4996066;28;20462;-85
2021/05/10 04:18:10;;;;;;;4.77;3.00;;;16.60;55.50;;;;;;5021440;28;20450;-84
2021/05/10 04:20:49;;;;;;;4.40;2.47;;;16.50;54.90;;;;;;5025129;28;20439;-85
2021/05/10 04:23:25;;;;;;;4.73;3.23;;;15.80;54.70;;;;;;5018619;28;20512;-85
2021/05/10 04:26:00;;;;;;;2.60;2.40;;;15.60;55.00;;;;;;5016944;28;20482;-83
2021/05/10 04:28:37;;;;;;;2.77;2.53;;;15.50;55.20;;;;;;5013526;28;20482;-87
2021/05/10 04:31:13;;;;;;;3.43;2.67;;;15.70;55.30;;;;;;5021008;28;20459;-86
2021/05/10 04:34:16;;;;;;;3.80;2.97;;;16.00;54.80;;;;;;5020664;28;20473;-85
2021/05/10 04:36:52;;;;;;;3.33;2.50;;;16.70;54.80;;;;;;5017358;28;20454;-84
2021/05/10 04:39:27;;;;;;;2.80;2.33;;;17.50;53.70;;;;;;5007102;28;20441;-84
2021/05/10 04:42:12;;;;;;;2.80;2.60;;;18.30;53.20;;;;;;5018218;28;20463;-85
2021/05/10 04:44:46;;;;;;;3.83;2.40;;;19.40;52.00;;;;;;5021133;28;20458;-84
2021/05/10 04:47:47;;;;;;;2.30;1.97;;;19.50;51.20;;;;;;5007108;28;20506;-85
2021/05/10 04:50:27;;;;;;;5.37;2.63;;;19.40;50.60;;;;;;5024082;28;20486;-83
2021/05/10 04:53:00;;;;;;;3.17;2.77;;;17.80;50.30;;;;;;5020286;28;20479;-87
2021/05/10 04:55:39;;;;;;;4.00;2.63;;;16.80;51.10;;;;;;5024740;28;20486;-85
2021/05/10 04:58:24;;;;;;;3.40;3.10;;;16.30;51.90;;;;;;5017618;28;20467;-85
2021/05/10 05:01:00;;;;;;;2.90;2.70;;;16.00;52.30;;;;;;4995315;28;20487;-85
2021/05/10 05:03:35;;;;;;;2.60;2.30;;;15.90;52.70;;;;;;5014955;28;20481;-85
2021/05/10 05:06:24;;;;;;;2.73;2.53;;;16.30;53.20;;;;;;5005929;28;20480;-84
2021/05/10 05:08:59;;;;;;;4.10;2.90;;;16.40;52.80;;;;;;5015466;28;20561;-85
2021/05/10 05:11:34;;;;;;;2.87;2.67;;;18.10;53.30;;;;;;5019488;28;20852;-84
2021/05/10 05:14:09;;;;;;;3.97;2.67;;;21.10;51.70;;;;;;5015611;28;20555;-84
2021/05/10 05:16:53;;;;;;;4.73;2.90;;;22.40;49.40;;;;;;4997568;28;20961;-85
2021/05/10 05:19:28;;;;;;;3.80;2.90;;;23.40;48.60;;;;;;5014263;28;20466;-84
2021/05/10 05:22:04;;;;;;;3.43;2.67;;;24.00;47.50;;;;;;5012590;28;20455;-84
2021/05/10 05:24:46;;;;;;;3.50;2.57;;;24.50;47.00;;;;;;5012334;28;20500;-84
2021/05/10 05:27:21;;;;;;;4.40;2.77;;;24.80;46.60;;;;;;5019769;28;20521;-84
2021/05/10 05:29:56;;;;;;;4.20;2.50;;;25.00;46.10;;;;;;5014444;28;20458;-86
2021/05/10 05:32:33;;;;;;;3.60;2.33;;;25.00;45.80;;;;;;5005827;28;21037;-84
2021/05/10 05:35:08;;;;;;;5.63;2.83;;;25.20;45.60;;;;;;5016683;28;20463;-85
2021/05/10 05:37:45;;;;;;;4.33;2.37;;;25.30;45.40;;;;;;5003526;28;20464;-84
2021/05/10 05:40:22;;;;;;;6.40;2.60;;;25.00;45.20;;;;;;5000634;28;20449;-85
2021/05/10 05:42:57;;;;;;;3.47;2.13;;;25.00;45.20;;;;;;5017646;28;20559;-86
2021/05/10 05:45:32;;;;;;;3.97;2.03;;;25.10;44.90;;;;;;5015277;28;20504;-84
2021/05/10 05:48:11;;;;;;;3.60;2.30;;;25.00;45.00;;;;;;5017350;28;20449;-86
2021/05/10 05:50:46;;;;;;;2.67;2.37;;;24.30;44.50;;;;;;5016596;28;20828;-86
2021/05/10 05:53:22;;;;;;;10.30;2.77;;;24.20;45.00;;;;;;5017428;28;20488;-85
2021/05/10 05:55:57;;;;;;;6.07;2.53;;;22.50;44.50;;;;;;5005171;28;20473;-86
2021/05/10 05:58:32;;;;;;;4.17;2.67;;;22.70;45.30;;;;;;5023484;28;20451;-87
2021/05/10 06:01:07;;;;;;;3.37;2.50;;;23.10;45.40;;;;;;5024630;28;20463;-86
2021/05/10 06:03:42;;;;;;;5.20;2.47;;;22.90;44.70;;;;;;5006367;28;20451;-85
2021/05/10 06:06:17;;;;;;;6.27;3.47;;;22.60;44.50;;;;;;5028380;28;20455;-87
2021/05/10 06:08:50;;;;;;;3.30;2.50;;;21.60;45.10;;;;;;5030872;28;20449;-85
2021/05/10 06:11:26;;;;;;;3.27;2.67;;;21.30;45.00;;;;;;5027584;28;20459;-86
2021/05/10 06:14:01;;;;;;;2.50;2.20;;;21.10;45.10;;;;;;5024610;28;20450;-85
2021/05/10 06:16:43;;;;;;;5.87;2.87;;;21.10;45.20;;;;;;5016457;28;20459;-85
2021/05/10 06:19:19;;;;;;;4.70;2.07;;;20.90;45.20;;;;;;5020043;28;20464;-86
2021/05/10 06:21:51;;;;;;;3.30;2.60;;;20.80;45.60;;;;;;5023830;28;20489;-87
2021/05/10 06:24:27;;;;;;;3.03;2.13;;;20.80;45.80;;;;;;5023989;28;20994;-86
2021/05/10 06:27:03;;;;;;;6.40;2.47;;;20.70;45.60;;;;;;5019452;28;21005;-86
2021/05/10 06:29:37;;;;;;;5.93;3.03;;;20.70;45.40;;;;;;5015044;28;20450;-84
2021/05/10 06:32:13;;;;;;;2.60;2.40;;;20.70;45.40;;;;;;5001876;28;20475;-83
2021/05/10 06:34:51;;;;;;;5.27;2.50;;;20.60;45.50;;;;;;5020878;28;20447;-84
2021/05/10 06:37:29;;;;;;;3.83;2.20;;;20.60;45.40;;;;;;5012333;28;20460;-85
2021/05/10 06:40:07;;;;;;;4.27;2.43;;;20.80;45.60;;;;;;5017518;28;20501;-84
2021/05/10 06:42:47;;;;;;;4.03;2.10;;;20.90;45.40;;;;;;5016525;28;20460;-86
2021/05/10 06:45:22;;;;;;;3.00;2.40;;;21.10;45.20;;;;;;5011483;28;20517;-86
2021/05/10 06:48:02;;;;;;;5.53;2.37;;;21.20;45.10;;;;;;5010792;28;20810;-86
2021/05/10 06:50:37;;;;;;;3.13;2.03;;;21.40;45.10;;;;;;5011844;28;21160;-86
2021/05/10 06:53:12;;;;;;;5.03;2.10;;;21.50;44.40;;;;;;4993341;28;20480;-86
2021/05/10 06:55:53;;;;;;;3.87;2.00;;;21.70;44.50;;;;;;5010303;28;20451;-86
2021/05/10 06:58:29;;;;;;;2.03;1.93;;;21.90;44.30;;;;;;5011806;28;20454;-87
2021/05/10 07:01:04;;;;;;;2.63;1.90;;;22.10;44.50;;;;;;5013029;28;20451;-86
2021/05/10 07:03:38;;;;;;;4.63;2.40;;;22.30;44.20;;;;;;5016588;28;20440;-86
2021/05/10 07:06:13;;;;;;;2.60;1.97;;;22.40;43.90;;;;;;5014506;28;20538;-87
2021/05/10 07:08:48;;;;;;;4.00;2.30;;;22.70;44.00;;;;;;5009027;28;20454;-87
2021/05/10 07:11:21;;;;;;;3.37;1.97;;;22.90;43.50;;;;;;5013013;28;20470;-87
2021/05/10 07:14:02;;;;;;;8.13;2.53;;;23.20;43.60;;;;;;5013911;28;20487;-87
2021/05/10 07:16:37;;;;;;;2.20;2.00;;;23.30;43.50;;;;;;5006211;28;20469;-87
2021/05/10 07:19:11;;;;;;;2.43;2.23;;;23.70;43.70;;;;;;5011250;28;20472;-80
2021/05/10 07:21:46;;;;;;;3.17;2.07;;;24.10;43.30;;;;;;5019328;28;20450;-85
2021/05/10 07:24:22;;;;;;;4.57;1.97;;;24.40;43.20;;;;;;5027758;28;20450;-85
2021/05/10 07:27:08;;;;;;;5.20;2.20;;;24.80;42.90;;;;;;5023486;28;20454;-86
2021/05/10 07:32:35;;;;;;;2.03;1.83;;;24.80;42.50;;;;;;5028981;28;20466;-87
2021/05/10 07:35:15;;;;;;;2.90;2.00;;;24.90;42.30;;;;;;5024198;28;20455;-86
2021/05/10 07:38:04;;;;;;;3.30;1.80;;;25.20;42.60;;;;;;5024540;28;20525;-86
2021/05/10 07:43:45;;;;;;;3.20;2.10;;;24.70;42.10;;;;;;5017106;28;20474;-87
2021/05/10 07:46:25;;;;;;;2.47;2.00;;;24.70;42.10;;;;;;5004585;28;20458;-88
2021/05/10 07:49:05;;;;;;;3.43;1.83;;;24.90;42.10;;;;;;5015616;28;20489;-87
2021/05/10 07:51:46;;;;;;;2.10;2.00;;;25.00;42.10;;;;;;4994899;28;20497;-87
2021/05/10 07:54:28;;;;;;;2.27;1.90;;;24.90;41.80;;;;;;5011810;28;20470;-88
2021/05/10 07:57:09;;;;;;;3.87;1.80;;;24.80;41.50;;;;;;5013238;28;20463;-88
2021/05/10 08:02:36;;;;;;;5.13;1.67;;;24.80;41.30;;;;;;5010935;28;20446;-88
2021/05/10 08:05:17;;;;;;;1.87;1.70;;;25.00;41.20;;;;;;5008038;28;20493;-90
2021/05/10 08:10:59;;;;;;;4.87;1.60;;;25.00;41.20;;;;;;5023994;28;20562;-78
2021/05/10 08:13:31;;;;;;;4.30;2.20;;;25.10;41.80;;;;;;5015809;28;20478;-85
2021/05/10 08:16:17;;;;;;;1.90;1.77;;;25.30;42.00;;;;;;5014021;28;20489;-90
2021/05/10 08:18:59;;;;;;;3.23;1.63;;;25.50;41.80;;;;;;5013802;28;20477;-87
2021/05/10 08:21:34;;;;;;;8.00;2.00;;;25.50;42.20;;;;;;4996712;28;20519;-84
2021/05/10 08:24:10;;;;;;;1.77;1.53;;;25.50;41.70;;;;;;5007765;28;20451;-88
2021/05/10 08:26:45;;;;;;;5.07;2.10;;;25.30;41.90;;;;;;5008915;28;20482;-84
2021/05/10 08:29:21;;;;;;;15.07;2.70;;;25.40;42.80;;;;;;5018994;28;20507;-85
2021/05/10 08:31:57;;;;;;;4.70;2.10;;;25.20;42.40;;;;;;5008065;28;20807;-80
2021/05/10 08:34:31;;;;;;;3.07;1.80;;;25.20;42.20;;;;;;5017725;28;20525;-81
2021/05/10 08:37:13;;;;;;;4.53;1.70;;;25.20;41.60;;;;;;5007608;28;20477;-80
2021/05/10 08:39:49;;;;;;;6.40;2.17;;;25.20;42.10;;;;;;5016942;28;20546;-82
2021/05/10 08:42:24;;;;;;;3.30;1.60;;;25.40;42.00;;;;;;5015121;28;20511;-82
2021/05/10 08:45:00;;;;;;;4.23;2.33;;;25.40;42.20;;;;;;5016632;28;20865;-81
2021/05/10 08:47:38;;;;;;;3.37;1.60;;;25.40;41.90;;;;;;5015653;28;20536;-80
2021/05/10 08:50:14;;;;;;;4.83;2.20;;;25.60;42.10;;;;;;5011191;28;20459;-80
2021/05/10 08:52:49;;;;;;;2.30;1.83;;;25.70;41.40;;;;;;5010431;28;20474;-80
2021/05/10 08:55:24;;;;;;;5.83;1.70;;;25.80;41.10;;;;;;5013709;28;20456;-80
2021/05/10 08:57:59;;;;;;;1.57;1.47;;;25.70;40.60;;;;;;5013108;28;20451;-81
2021/05/10 09:00:34;;;;;;;4.07;1.70;;;25.60;40.40;;;;;;5013613;28;20799;-81
2021/05/10 09:03:16;;;;;;;2.57;1.47;;;25.70;40.70;;;;;;5011643;28;20466;-80
2021/05/10 09:05:58;;;;;;;2.77;1.43;;;26.20;40.50;;;;;;5014134;28;20528;-79
2021/05/10 09:08:40;;;;;;;2.30;1.63;;;26.40;40.40;;;;;;5012920;28;20443;-80
2021/05/10 09:11:16;;;;;;;2.30;1.47;;;26.70;40.50;;;;;;5004689;28;20467;-80
2021/05/10 09:13:57;;;;;;;3.90;1.47;;;26.70;40.10;;;;;;5007833;28;20480;-79
2021/05/10 09:16:36;;;;;;;16.40;3.60;;;26.90;40.20;;;;;;5010399;28;20543;-80
2021/05/10 09:19:12;;;;;;;2.40;2.07;;;27.40;40.20;;;;;;5014430;28;20505;-80
2021/05/10 09:22:01;;;;;;;7.00;3.53;;;27.30;40.20;;;;;;5016945;28;20526;-82
2021/05/10 09:24:46;;;;;;;5.87;3.87;;;27.10;40.40;;;;;;4983697;28;20989;-80
2021/05/10 09:27:41;;;;;;;15.20;3.50;;;27.00;40.40;;;;;;5019846;28;20450;-80
2021/05/10 09:30:25;;;;;;;8.00;2.70;;;27.20;40.40;;;;;;5017066;28;20458;-81
2021/05/10 09:33:05;;;;;;;2.37;1.97;;;26.90;39.80;;;;;;5018741;28;20480;-81
2021/05/10 09:35:39;;;;;;;2.57;1.77;;;26.90;40.00;;;;;;5022708;28;20467;-81
2021/05/10 09:38:24;;;;;;;5.90;2.23;;;26.80;40.10;;;;;;5027570;28;20492;-81
2021/05/10 09:41:01;;;;;;;3.00;1.90;;;26.20;39.90;;;;;;5021089;28;20451;-80
2021/05/10 09:43:38;;;;;;;5.70;2.53;;;26.30;40.40;;;;;;5004285;28;20945;-81
2021/05/10 09:46:13;;;;;;;3.50;2.13;;;26.40;40.60;;;;;;5025566;28;20542;-80
2021/05/10 09:48:50;;;;;;;2.23;2.03;;;26.40;40.10;;;;;;5026357;28;20493;-80
2021/05/10 09:51:27;;;;;;;4.50;1.93;;;26.30;40.20;;;;;;5027304;28;20446;-81
2021/05/10 09:54:02;;;;;;;5.83;2.40;;;26.30;40.50;;;;;;5021105;28;20470;-82
2021/05/10 09:56:40;;;;;;;2.03;1.53;;;26.40;40.20;;;;;;5023062;28;20489;-82
2021/05/10 09:59:18;;;;;;;3.60;1.90;;;26.20;40.20;;;;;;5019023;28;20455;-80
2021/05/10 10:01:55;;;;;;;1.80;1.70;;;26.10;40.50;;;;;;5013647;28;20455;-80
2021/05/10 10:04:51;;;;;;;3.10;1.93;;;26.10;40.60;;;;;;5026402;28;20454;-81
2021/05/10 10:07:29;;;;;;;3.13;2.07;;;26.40;40.30;;;;;;5026410;28;20633;-83
2021/05/10 10:10:06;;;;;;;7.40;1.77;;;26.50;39.80;;;;;;5014417;28;20490;-83
2021/05/10 10:12:41;;;;;;;1.80;1.70;;;26.50;40.10;;;;;;5017630;28;20459;-83
2021/05/10 10:15:16;;;;;;;2.20;1.87;;;26.50;39.40;;;;;;5021504;28;20470;-83
2021/05/10 10:18:00;;;;;;;1.53;1.43;;;26.90;39.60;;;;;;5027777;28;20450;-82
2021/05/10 10:20:54;;;;;;;5.87;1.63;;;27.00;39.90;;;;;;5025014;28;20458;-84
2021/05/10 10:23:32;;;;;;;3.30;2.17;;;27.20;39.90;;;;;;5018016;28;20546;-84
2021/05/10 10:28:59;;;;;;;2.13;1.70;;;27.20;39.50;;;;;;5020039;28;20482;-87
2021/05/10 10:34:51;;;;;;;3.17;1.70;;;26.90;39.70;;;;;;5022075;28;20463;-86
2021/05/10 10:43:33;;;;;;;5.10;2.20;;;27.50;39.60;;;;;;5029971;28;20509;-86
2021/05/10 10:46:37;;;;;;;3.20;2.00;;;27.70;39.60;;;;;;5020977;28;20456;-86
2021/05/10 10:49:40;;;;;;;3.03;1.93;;;27.70;39.00;;;;;;5025443;28;20455;-86
2021/05/10 10:55:50;;;;;;;8.03;1.97;;;28.50;39.20;;;;;;5029268;28;20458;-87
2021/05/10 10:58:33;;;;;;;2.50;1.53;;;28.90;38.80;;;;;;5034990;28;20549;-86
2021/05/10 11:01:19;;;;;;;1.83;1.60;;;28.40;38.20;;;;;;5010624;28;20477;-85
2021/05/10 11:03:54;;;;;;;2.70;1.50;;;27.60;37.50;;;;;;5032416;28;20478;-87
2021/05/10 11:06:53;;;;;;;2.03;1.83;;;28.20;38.10;;;;;;5006374;28;20482;-87
2021/05/10 11:10:02;;;;;;;2.70;1.60;;;27.80;38.50;;;;;;5011393;28;20482;-84
2021/05/10 11:13:01;;;;;;;1.83;1.60;;;27.70;38.80;;;;;;5011021;28;20503;-86
2021/05/10 11:16:07;;;;;;;2.90;1.80;;;27.50;38.60;;;;;;5017545;28;20472;-85
2021/05/10 11:18:54;;;;;;;2.90;1.60;;;27.20;38.40;;;;;;5007478;28;20478;-87
2021/05/10 11:21:52;;;;;;;4.83;2.10;;;27.40;38.60;;;;;;5020205;28;20452;-87
2021/05/10 11:24:40;;;;;;;3.40;1.50;;;27.30;38.90;;;;;;5015097;28;20558;-86
2021/05/10 11:27:37;;;;;;;2.90;1.50;;;27.40;39.30;;;;;;5012607;28;20545;-87
2021/05/10 11:30:57;;;;;;;4.30;1.60;;;27.50;39.00;;;;;;5014754;28;20567;-86
2021/05/10 11:34:15;;;;;;;4.47;1.83;;;27.40;39.00;;;;;;5022994;28;20475;-87
2021/05/10 11:43:30;;;;;;;3.00;1.50;;;27.50;39.00;;;;;;5030709;28;20483;-87
2021/05/10 11:49:46;;;;;;;3.70;1.80;;;27.30;39.10;;;;;;5019826;28;21065;-86
2021/05/10 11:52:31;;;;;;;3.80;1.90;;;27.70;39.20;;;;;;5017455;28;20479;-87
2021/05/10 11:58:12;;;;;;;2.37;1.60;;;27.50;38.80;;;;;;5019919;28;20459;-86
2021/05/10 12:07:22;;;;;;;3.23;1.60;;;27.70;38.50;;;;;;5022299;28;20550;-86
2021/05/10 12:10:11;;;;;;;2.07;1.83;;;27.50;38.60;;;;;;5017766;28;20467;-87
2021/05/10 12:12:54;;;;;;;2.03;1.50;;;27.30;38.50;;;;;;5016998;28;21057;-86
2021/05/10 12:21:32;;;;;;;1.77;1.50;;;27.70;38.70;;;;;;5013623;28;20453;-87
2021/05/10 12:24:25;;;;;;;2.20;1.50;;;27.70;38.50;;;;;;4987767;28;20446;-86
2021/05/10 12:27:11;;;;;;;2.23;1.63;;;28.00;38.50;;;;;;5003852;28;20447;-86
2021/05/10 12:30:09;;;;;;;2.77;2.00;;;27.70;39.00;;;;;;5013015;28;20511;-87
2021/05/10 12:32:54;;;;;;;2.60;1.80;;;27.70;39.20;;;;;;5020553;28;20470;-87
2021/05/10 12:35:58;;;;;;;3.77;1.90;;;27.40;40.10;;;;;;5017226;28;20463;-87
2021/05/10 12:45:45;;;;;;;4.90;2.20;;;27.10;42.40;;;;;;5018537;28;20551;-86
2021/05/10 12:48:53;;;;;;;3.00;2.10;;;27.60;41.80;;;;;;5003005;28;20451;-86
2021/05/10 12:57:28;;;;;;;2.30;2.10;;;27.50;42.00;;;;;;5024156;28;20455;-86
2021/05/10 13:00:45;;;;;;;2.37;2.03;;;27.60;42.00;;;;;;5015917;28;20460;-85
2021/05/10 13:03:56;;;;;;;5.03;2.60;;;27.70;42.20;;;;;;5023251;28;20506;-86
2021/05/10 13:06:47;;;;;;;2.43;2.00;;;27.40;42.30;;;;;;5031748;28;20447;-87
2021/05/10 13:09:42;;;;;;;2.67;2.30;;;;;;;;;;5026480;28;20444;-87
2021/05/10 13:12:37;;;;;;;9.17;2.40;;;26.80;42.80;;;;;;5030654;28;20478;-88
2021/05/10 13:18:46;;;;;;;2.63;2.43;;;26.90;43.90;;;;;;5019354;28;20508;-87
2021/05/10 13:36:42;;;;;;;3.83;2.37;;;26.40;43.70;;;;;;5015904;28;20450;-86
2021/05/10 13:42:27;;;;;;;3.80;2.87;;;26.00;44.40;;;;;;4996215;28;20471;-87
2021/05/10 13:45:16;;;;;;;4.27;2.50;;;25.90;44.70;;;;;;5016466;28;20547;-86
2021/05/10 13:47:58;;;;;;;3.90;2.70;;;25.90;44.90;;;;;;5016330;28;20450;-87
2021/05/10 14:00:07;;;;;;;2.70;2.37;;;25.60;45.10;;;;;;5026710;28;20502;-87
2021/05/10 14:02:49;;;;;;;3.00;2.60;;;25.60;45.70;;;;;;5027493;28;20583;-87
2021/05/10 14:05:28;;;;;;;2.90;2.20;;;25.90;46.30;;;;;;5007475;28;20482;-87
2021/05/10 14:08:22;;;;;;;2.80;2.50;;;26.10;46.80;;;;;;5012977;28;20559;-87
2021/05/10 14:14:06;;;;;;;5.83;2.50;;;25.30;47.10;;;;;;5018647;28;20498;-87
2021/05/10 14:16:48;;;;;;;5.30;2.40;;;25.30;47.60;;;;;;5024123;28;20470;-87
2021/05/10 14:19:32;;;;;;;2.83;2.00;;;25.00;47.20;;;;;;5018568;28;20459;-87
2021/05/10 14:22:07;;;;;;;3.60;3.00;;;25.00;47.70;;;;;;5030354;28;20439;-87
2021/05/10 14:25:05;;;;;;;3.40;2.73;;;25.20;47.30;;;;;;5029884;28;20538;-87
2021/05/10 14:27:44;;;;;;;3.30;3.10;;;25.00;47.40;;;;;;5028706;28;20440;-86
2021/05/10 14:31:00;;;;;;;2.90;2.60;;;24.80;47.50;;;;;;5023225;28;20466;-86
2021/05/10 14:33:42;;;;;;;2.90;2.60;;;24.60;47.30;;;;;;5026105;28;20497;-86
2021/05/10 14:36:40;;;;;;;6.70;2.33;;;24.90;47.80;;;;;;5010239;28;20454;-86
2021/05/10 14:42:05;;;;;;;5.07;2.77;;;24.40;47.10;;;;;;5018861;28;20486;-84
2021/05/10 14:47:42;;;;;;;6.17;2.77;;;24.40;47.60;;;;;;5014361;28;20953;-86
2021/05/10 14:50:29;;;;;;;2.63;2.43;;;24.50;47.70;;;;;;5024044;28;20529;-86
2021/05/10 14:53:02;;;;;;;3.73;2.73;;;;;;;;;;5009554;28;20982;-86
2021/05/10 14:55:42;;;;;;;3.93;2.40;;;;;;;;;;5026205;28;20451;-86
2021/05/10 14:58:36;;;;;;;4.60;2.60;;;;;;;;;;5028718;28;20443;-87
2021/05/10 15:01:14;;;;;;;2.50;2.30;;;24.60;47.30;;;;;;5023652;28;20489;-84
2021/05/10 15:03:50;;;;;;;2.87;2.33;;;24.20;47.50;;;;;;5023557;28;20466;-86
2021/05/10 15:06:28;;;;;;;3.50;2.70;;;24.30;48.10;;;;;;5021881;28;20451;-87
2021/05/10 15:09:04;;;;;;;3.17;2.40;;;24.50;48.10;;;;;;5024024;28;20494;-86
2021/05/10 15:11:47;;;;;;;3.97;2.60;;;24.00;47.90;;;;;;5022192;28;20459;-84
2021/05/10 15:14:33;;;;;;;2.80;2.60;;;23.70;47.90;;;;;;5016690;28;20476;-84
2021/05/10 15:17:39;;;;;;;6.07;2.17;;;23.70;48.30;;;;;;5018754;28;20844;-85
2021/05/10 15:20:12;;;;;;;6.67;2.60;;;23.80;48.40;;;;;;5004859;28;20458;-85
2021/05/10 15:25:52;;;;;;;6.20;2.30;;;23.90;48.40;;;;;;5019493;28;20475;-85
2021/05/10 15:28:37;;;;;;;11.30;3.60;;;24.00;48.40;;;;;;5022078;28;20453;-84
2021/05/10 15:31:33;;;;;;;5.27;2.63;;;24.10;48.30;;;;;;5021357;28;20522;-85
2021/05/10 15:37:11;;;;;;;2.63;2.30;;;24.20;47.90;;;;;;5004666;28;20461;-84
2021/05/10 15:39:50;;;;;;;4.97;3.03;;;24.10;48.10;;;;;;5017354;28;20451;-85
2021/05/10 15:42:27;;;;;;;4.10;1.87;;;23.90;48.20;;;;;;5020663;28;20974;-84
2021/05/10 15:45:06;;;;;;;18.53;2.97;;;24.10;48.10;;;;;;5018541;28;20825;-85
2021/05/10 15:47:54;;;;;;;3.23;2.17;;;23.80;47.70;;;;;;5004993;28;20470;-82
2021/05/10 15:50:38;;;;;;;3.87;2.30;;;24.00;47.90;;;;;;5023801;28;20490;-85
2021/05/10 15:53:35;;;;;;;3.70;2.00;;;24.10;48.00;;;;;;5020789;28;20497;-85
2021/05/10 15:58:59;;;;;;;2.53;2.10;;;24.00;47.10;;;;;;5002903;28;20453;-87
2021/05/10 16:01:39;;;;;;;3.90;1.57;;;23.50;47.30;;;;;;4992419;28;20501;-87
2021/05/10 16:04:23;;;;;;;1.97;1.67;;;;;;;;;;5018554;28;20864;-87
2021/05/10 16:09:44;;;;;;;4.77;1.73;;;;;;;;;;5024473;28;20474;-86
2021/05/10 16:12:24;;;;;;;2.13;1.30;;;23.20;47.20;;;;;;5020730;28;20465;-85